Latest Conditions
At L.F.Wade Int. Airport
Recorded at 6:14 am
Mostly Cloudy
Temp.: 
22°C/71°F
Humidity: 
90%
Wind: 
SSW 11KT
or 13mph
UV Index: 
0
Island Observations
 
Observations
Sunday, December 16, 2018

Observations are in local time and taken at least once an hour, or upon the start and end of specified events such as showers and thunderstorms.

Time Sky / Weather Wind Speed/Gusts Temp. R.H. Pressure
     knots (mph)  °C (°F)  %  mb / "Hg
 06:14 Mostly Cloudy  SSW 11/0 (13/0) 22(71) 90 1021 / 30.14
 05:55 Mostly Cloudy  SSW 10/0 (12/0) 22(71) 90 1021 / 30.15
 04:55 Mostly Cloudy  SSW 12/0 (14/0) 22(71) 89 1021 / 30.15
 03:55 Mostly Cloudy  SSW 14/0 (16/0) 22(71) 87 1021 / 30.15
 02:55 Overcast  SSW 15/0 (17/0) 22(71) 85 1021 / 30.16
 01:55 Overcast  SSW 14/0 (16/0) 22(71) 85 1022 / 30.17
 00:55 Overcast  S 15/0 (17/0) 22(71) 83 1022 / 30.18
 23:55 Overcast  S 15/0 (17/0) 22(71) 84 1023 / 30.22
 22:55 Overcast  S 17/0 (20/0) 22(71) 81 1024 / 30.25
 21:55 Mostly Cloudy  S 17/0 (20/0) 22(71) 77 1025 / 30.26
 20:55 Overcast  S 16/0 (18/0) 22(71) 80 1025 / 30.27
 19:55 Overcast  S 16/0 (18/0) 21(70) 82 1025 / 30.27
 18:55 Overcast  S 17/0 (20/0) 21(70) 80 1026 / 30.29
 17:55 Overcast  S 16/0 (18/0) 21(70) 78 1026 / 30.29
 16:55 Overcast  S 15/0 (17/0) 21(70) 75 1026 / 30.30
 15:55 Overcast  S 15/0 (17/0) 21(70) 72 1026 / 30.30
 14:55 Overcast  S 16/0 (18/0) 21(70) 69 1026 / 30.30
 13:55 Mostly Cloudy  S 15/0 (17/0) 22(71) 67 1026 / 30.30
 12:55 Mostly Cloudy  SSE 16/0 (18/0) 22(72) 63 1027 / 30.33
 11:55 Mostly Cloudy  SE 16/0 (18/0) 22(71) 67 1028 / 30.37
 10:55 Mostly Cloudy  SSE 15/0 (17/0) 22(71) 56 1030 / 30.41
 09:55 Mostly Cloudy  SSE 14/0 (16/0) 21(70) 64 1030 / 30.43
 08:55 Mostly Cloudy  SSE 15/0 (17/0) 20(69) 63 1030 / 30.42
 07:55 Mostly Cloudy  SE 14/0 (16/0) 20(68) 59 1030 / 30.41
 06:55 Partly Cloudy  SE 14/0 (16/0) 20(67) 62 1030 / 30.41
 05:55 Partly Cloudy  SE 12/0 (14/0) 20(67) 63 1030 / 30.41
 04:55 Partly Cloudy  SSE 12/0 (14/0) 19(67) 57 1029 / 30.40
 03:55 Partly Cloudy  SSE 12/0 (14/0) 19(67) 57 1030 / 30.41
 02:55 Partly Cloudy  SSE 12/0 (14/0) 19(67) 57 1030 / 30.43
 01:55 Partly Cloudy  SSE 12/0 (14/0) 19(67) 61 1030 / 30.43
 00:55 Mostly Cloudy  SE 11/0 (13/0) 19(67) 63 1030 / 30.43
 23:55 Partly Cloudy  SE 10/0 (12/0) 19(66) 64 1031 / 30.45
 22:55 Partly Cloudy  ESE 13/0 (15/0) 19(66) 64 1031 / 30.46
 21:55 Few Clouds  ESE 11/0 (13/0) 19(66) 64 1032 / 30.48
 20:55 Few Clouds  ESE 12/0 (14/0) 19(66) 65 1032 / 30.48
 19:55 Few Clouds  ESE 13/0 (15/0) 19(65) 66 1032 / 30.47
 18:55 Partly Cloudy  ESE 12/0 (14/0) 19(65) 65 1032 / 30.47
 17:55 Few Clouds  E 12/0 (14/0) 18(65) 68 1031 / 30.46
 16:55 Partly Cloudy  E 11/0 (13/0) 19(66) 65 1031 / 30.46
 15:55 Few Clouds  E 12/0 (14/0) 20(67) 62 1031 / 30.46
 14:55 Partly Cloudy  E 11/0 (13/0) 20(67) 62 1031 / 30.45
 13:55 Partly Cloudy  E 9/0 (10/0) 20(68) 60 1031 / 30.45
 12:55 Partly Cloudy  ESE 9/0 (10/0) 20(68) 57 1031 / 30.46
 11:55 Mostly Cloudy  ESE 9/0 (10/0) 20(68) 57 1032 / 30.47
 10:55 Mostly Cloudy  E 9/0 (10/0) 20(67) 60 1033 / 30.49
 09:55 Mostly Cloudy  E 9/0 (10/0) 19(66) 61 1033 / 30.50
 08:55 Mostly Cloudy  E 7/0 (8/0) 19(66) 63 1032 / 30.48
 07:55 Mostly Cloudy  E 9/0 (10/0) 17(63) 71 1031 / 30.46
 06:55 Overcast  ENE 6/0 (7/0) 16(60) 74 1031 / 30.46
 05:55 Mostly Cloudy  E 4/0 (5/0) 15(58) 70 1031 / 30.44
 04:55 Mostly Cloudy  ENE 3/0 (3/0) 15(59) 69 1030 / 30.43
 03:55 Mostly Cloudy  NNE 4/0 (5/0) 16(61) 63 1030 / 30.43
 02:55 Partly Cloudy  Calm 16(62) 58 1031 / 30.44
 01:55 Mostly Cloudy  NNE 4/0 (5/0) 16(62) 59 1030 / 30.43
 00:55 Partly Cloudy  NE 5/0 (6/0) 17(63) 57 1030 / 30.43
 23:55 Mostly Cloudy  NE 6/0 (7/0) 17(63) 57 1030 / 30.42
 22:55 Mostly Cloudy  NE 7/0 (8/0) 18(64) 59 1030 / 30.43
 21:55 Mostly Cloudy  NE 8/0 (9/0) 18(64) 61 1030 / 30.43
 20:55 Mostly Cloudy  NE 6/0 (7/0) 17(63) 64 1030 / 30.42
 19:55 Mostly Cloudy  NE 6/0 (7/0) 18(64) 62 1030 / 30.41
 18:55 Mostly Cloudy  NNE 6/0 (7/0) 17(63) 58 1029 / 30.40
 17:55 Mostly Cloudy  NNE 6/0 (7/0) 18(64) 59 1029 / 30.39
 16:55 Mostly Cloudy  NNE 4/0 (5/0) 18(64) 57 1028 / 30.37
 15:55 Mostly Cloudy  NNE 7/0 (8/0) 19(66) 55 1028 / 30.35
 14:55 Mostly Cloudy  NNW 5/0 (6/0) 19(67) 55 1027 / 30.34
 13:55 Mostly Cloudy  N 8/0 (9/0) 19(66) 58 1027 / 30.33
 12:55 Mostly Cloudy  N 6/0 (7/0) 20(67) 54 1027 / 30.33
 11:55 Partly Cloudy  N 7/0 (8/0) 20(67) 54 1027 / 30.34
 10:55 Mostly Cloudy  N 8/0 (9/0) 19(66) 54 1027 / 30.34
 09:55 Partly Cloudy  NNW 9/0 (10/0) 19(67) 51 1027 / 30.33
 08:55 Mostly Cloudy  NW 8/0 (9/0) 18(65) 51 1026 / 30.31
 07:55 Mostly Cloudy  NNW 8/0 (9/0) 18(64) 55 1026 / 30.29
 06:55 Mostly Cloudy  WNW 8/0 (9/0) 18(64) 54 1025 / 30.27
 05:55 Few Clouds  WNW 9/0 (10/0) 18(64) 51 1024 / 30.25
 04:55 Few Clouds  NW 10/0 (12/0) 18(64) 52 1024 / 30.23
 03:55 Partly Cloudy  NW 9/0 (10/0) 18(64) 47 1023 / 30.22
 02:55 Partly Cloudy  NW 13/0 (15/0) 18(64) 47 1023 / 30.21
 01:55 Partly Cloudy  NW 13/0 (15/0) 18(64) 57 1023 / 30.20
 00:55 Partly Cloudy  NNW 14/0 (16/0) 18(64) 61 1022 / 30.19
 23:55 Mostly Cloudy  NNW 12/0 (14/0) 18(65) 59 1022 / 30.17
 22:55 Mostly Cloudy  NW 14/0 (16/0) 19(66) 52 1022 / 30.17
 21:55 Mostly Cloudy  WNW 14/0 (16/0) 19(66) 51 1021 / 30.16
 20:55 Mostly Cloudy  WNW 17/0 (20/0) 19(66) 53 1021 / 30.14
 19:55 Partly Cloudy  WNW 19/0 (22/0) 19(66) 55 1020 / 30.12
 18:55 Partly Cloudy  WNW 20/0 (23/0) 19(66) 50 1020 / 30.11
 17:55 Partly Cloudy  WNW 18/0 (21/0) 19(66) 56 1019 / 30.10
 16:55 Partly Cloudy  WNW 22/0 (25/0) 19(66) 49 1019 / 30.08
 15:55 Partly Cloudy  WNW 21/0 (24/0) 19(67) 54 1018 / 30.06
 14:55 Partly Cloudy  W 21/0 (24/0) 19(67) 57 1017 / 30.04
 13:55 Partly Cloudy Showers WNW 21/0 (24/0) 19(67) 59 1017 / 30.04
 12:55 Partly Cloudy  WNW 20/0 (23/0) 20(67) 58 1017 / 30.02
 11:55 Partly Cloudy  WNW 20/0 (23/0) 20(68) 52 1017 / 30.02
 10:55 Partly Cloudy  WNW 20/0 (23/0) 20(68) 52 1017 / 30.03
 09:55 Partly Cloudy  WNW 19/0 (22/0) 20(68) 57 1016 / 30.01
 08:55 Partly Cloudy  WNW 20/0 (23/0) 19(67) 70 1016 / 29.99
 07:55 Partly Cloudy Showers WNW 18/0 (21/0) 19(67) 65 1014 / 29.95
 06:55 Partly Cloudy  W 21/0 (24/0) 19(65) 71 1013 / 29.92
 06:31 Mostly Cloudy Showers WNW 22/0 (25/0) 18(65) 76 1013 / 29.92
 06:11 Mostly Cloudy Showers NW 25/0 (29/0) 18(64) 82 1013 / 29.91
 05:55 Mostly Cloudy  W 22/0 (25/0) 20(67) 65 1012 / 29.89
Island AWOS